sensor_id;sensor_type;location;lat;lon;timestamp;pressure;altitude;pressure_sealevel;temperature;humidity
27429;BME280;14881;48.092;11.574;2023-01-27T00:01:02;95472.50;;;-1.76;100.00
27429;BME280;14881;48.092;11.574;2023-01-27T00:03:30;95472.72;;;-1.78;100.00
27429;BME280;14881;48.092;11.574;2023-01-27T00:05:58;95473.31;;;-1.76;100.00
27429;BME280;14881;48.092;11.574;2023-01-27T00:08:27;95468.97;;;-1.70;100.00
27429;BME280;14881;48.092;11.574;2023-01-27T00:10:59;95474.31;;;-1.70;100.00
27429;BME280;14881;48.092;11.574;2023-01-27T00:13:44;95467.78;;;-1.74;100.00
27429;BME280;14881;48.092;11.574;2023-01-27T00:16:12;95478.66;;;-1.76;100.00
27429;BME280;14881;48.092;11.574;2023-01-27T00:18:40;95476.19;;;-1.77;100.00
27429;BME280;14881;48.092;11.574;2023-01-27T00:21:07;95480.09;;;-1.80;100.00
27429;BME280;14881;48.092;11.574;2023-01-27T00:23:52;95469.88;;;-1.83;100.00
27429;BME280;14881;48.092;11.574;2023-01-27T00:26:39;95475.38;;;-1.78;100.00
27429;BME280;14881;48.092;11.574;2023-01-27T00:29:07;95469.28;;;-1.85;100.00
27429;BME280;14881;48.092;11.574;2023-01-27T00:31:35;95471.97;;;-1.91;100.00
27429;BME280;14881;48.092;11.574;2023-01-27T00:34:20;95463.75;;;-1.90;100.00
27429;BME280;14881;48.092;11.574;2023-01-27T00:36:47;95463.53;;;-1.82;100.00
27429;BME280;14881;48.092;11.574;2023-01-27T00:39:15;95465.78;;;-1.85;100.00
27429;BME280;14881;48.092;11.574;2023-01-27T00:41:44;95458.41;;;-1.83;100.00
27429;BME280;14881;48.092;11.574;2023-01-27T00:44:12;95465.66;;;-1.97;100.00
27429;BME280;14881;48.092;11.574;2023-01-27T00:46:40;95454.38;;;-1.92;100.00
27429;BME280;14881;48.092;11.574;2023-01-27T00:49:09;95460.94;;;-1.95;100.00
27429;BME280;14881;48.092;11.574;2023-01-27T00:51:38;95455.34;;;-1.87;100.00
27429;BME280;14881;48.092;11.574;2023-01-27T00:54:06;95466.25;;;-1.95;100.00
27429;BME280;14881;48.092;11.574;2023-01-27T00:56:34;95457.03;;;-1.92;100.00
27429;BME280;14881;48.092;11.574;2023-01-27T00:59:03;95477.31;;;-1.91;100.00
27429;BME280;14881;48.092;11.574;2023-01-27T01:01:32;95477.06;;;-1.90;100.00
27429;BME280;14881;48.092;11.574;2023-01-27T01:04:00;95475.47;;;-1.91;100.00
27429;BME280;14881;48.092;11.574;2023-01-27T01:06:28;95467.69;;;-1.92;100.00
27429;BME280;14881;48.092;11.574;2023-01-27T01:08:56;95467.84;;;-1.87;100.00
27429;BME280;14881;48.092;11.574;2023-01-27T01:11:25;95471.53;;;-1.88;100.00
27429;BME280;14881;48.092;11.574;2023-01-27T01:13:53;95479.16;;;-1.92;100.00
27429;BME280;14881;48.092;11.574;2023-01-27T01:16:24;95473.16;;;-1.87;100.00
27429;BME280;14881;48.092;11.574;2023-01-27T01:18:52;95483.22;;;-1.89;100.00
27429;BME280;14881;48.092;11.574;2023-01-27T01:21:20;95476.66;;;-1.87;100.00
27429;BME280;14881;48.092;11.574;2023-01-27T01:23:48;95482.19;;;-1.88;100.00
27429;BME280;14881;48.092;11.574;2023-01-27T01:26:16;95479.72;;;-1.90;100.00
27429;BME280;14881;48.092;11.574;2023-01-27T01:28:44;95479.72;;;-1.83;100.00
27429;BME280;14881;48.092;11.574;2023-01-27T01:31:14;95473.97;;;-1.80;100.00
27429;BME280;14881;48.092;11.574;2023-01-27T01:33:44;95479.69;;;-1.77;100.00
27429;BME280;14881;48.092;11.574;2023-01-27T01:36:13;95483.78;;;-1.74;100.00
27429;BME280;14881;48.092;11.574;2023-01-27T01:38:41;95484.19;;;-1.77;100.00
27429;BME280;14881;48.092;11.574;2023-01-27T01:41:11;95484.41;;;-1.79;100.00
27429;BME280;14881;48.092;11.574;2023-01-27T01:43:39;95472.31;;;-1.81;100.00
27429;BME280;14881;48.092;11.574;2023-01-27T01:46:07;95463.91;;;-1.78;100.00
27429;BME280;14881;48.092;11.574;2023-01-27T01:48:37;95461.03;;;-1.77;100.00
27429;BME280;14881;48.092;11.574;2023-01-27T01:51:12;95459.00;;;-1.81;100.00
27429;BME280;14881;48.092;11.574;2023-01-27T01:53:44;95455.72;;;-1.77;100.00
27429;BME280;14881;48.092;11.574;2023-01-27T01:56:16;95442.78;;;-1.73;100.00
27429;BME280;14881;48.092;11.574;2023-01-27T01:58:47;95447.06;;;-1.72;100.00
27429;BME280;14881;48.092;11.574;2023-01-27T02:01:19;95441.72;;;-1.65;100.00
27429;BME280;14881;48.092;11.574;2023-01-27T02:03:53;95434.94;;;-1.61;100.00
27429;BME280;14881;48.092;11.574;2023-01-27T02:06:24;95435.53;;;-1.59;100.00
27429;BME280;14881;48.092;11.574;2023-01-27T02:08:53;95448.47;;;-1.63;100.00
27429;BME280;14881;48.092;11.574;2023-01-27T02:11:21;95460.97;;;-1.63;100.00
27429;BME280;14881;48.092;11.574;2023-01-27T02:13:48;95457.47;;;-1.64;100.00
27429;BME280;14881;48.092;11.574;2023-01-27T02:16:16;95450.50;;;-1.65;100.00
27429;BME280;14881;48.092;11.574;2023-01-27T02:18:45;95455.84;;;-1.65;100.00
27429;BME280;14881;48.092;11.574;2023-01-27T02:21:13;95441.72;;;-1.65;100.00
27429;BME280;14881;48.092;11.574;2023-01-27T02:23:58;95450.31;;;-1.63;100.00
27429;BME280;14881;48.092;11.574;2023-01-27T02:26:29;95455.81;;;-1.58;100.00
27429;BME280;14881;48.092;11.574;2023-01-27T02:29:03;95444.78;;;-1.62;100.00
27429;BME280;14881;48.092;11.574;2023-01-27T02:31:31;95455.22;;;-1.60;100.00
27429;BME280;14881;48.092;11.574;2023-01-27T02:34:02;95452.13;;;-1.57;100.00
27429;BME280;14881;48.092;11.574;2023-01-27T02:36:33;95450.28;;;-1.57;100.00
27429;BME280;14881;48.092;11.574;2023-01-27T02:39:04;95449.00;;;-1.54;100.00
27429;BME280;14881;48.092;11.574;2023-01-27T02:41:36;95450.81;;;-1.48;100.00
27429;BME280;14881;48.092;11.574;2023-01-27T02:44:07;95446.69;;;-1.44;100.00
27429;BME280;14881;48.092;11.574;2023-01-27T02:46:36;95441.00;;;-1.54;100.00
27429;BME280;14881;48.092;11.574;2023-01-27T02:49:04;95440.59;;;-1.51;100.00
27429;BME280;14881;48.092;11.574;2023-01-27T02:51:32;95443.47;;;-1.53;100.00
27429;BME280;14881;48.092;11.574;2023-01-27T02:53:59;95445.69;;;-1.50;100.00
27429;BME280;14881;48.092;11.574;2023-01-27T02:56:27;95447.16;;;-1.54;100.00
27429;BME280;14881;48.092;11.574;2023-01-27T02:58:56;95441.19;;;-1.49;100.00
27429;BME280;14881;48.092;11.574;2023-01-27T03:01:24;95440.97;;;-1.48;100.00
27429;BME280;14881;48.092;11.574;2023-01-27T03:03:52;95443.63;;;-1.48;100.00
27429;BME280;14881;48.092;11.574;2023-01-27T03:06:20;95440.59;;;-1.51;100.00
27429;BME280;14881;48.092;11.574;2023-01-27T03:08:47;95438.94;;;-1.52;100.00
27429;BME280;14881;48.092;11.574;2023-01-27T03:11:16;95438.31;;;-1.48;100.00
27429;BME280;14881;48.092;11.574;2023-01-27T03:14:07;95434.44;;;-1.52;100.00
27429;BME280;14881;48.092;11.574;2023-01-27T03:16:35;95431.13;;;-1.47;100.00
27429;BME280;14881;48.092;11.574;2023-01-27T03:19:20;95442.31;;;-1.38;100.00
27429;BME280;14881;48.092;11.574;2023-01-27T03:21:48;95444.19;;;-1.39;100.00
27429;BME280;14881;48.092;11.574;2023-01-27T03:24:18;95436.56;;;-1.35;100.00
27429;BME280;14881;48.092;11.574;2023-01-27T03:26:46;95451.94;;;-1.37;100.00
27429;BME280;14881;48.092;11.574;2023-01-27T03:29:15;95438.59;;;-1.31;100.00
27429;BME280;14881;48.092;11.574;2023-01-27T03:32:01;95439.31;;;-1.42;100.00
27429;BME280;14881;48.092;11.574;2023-01-27T03:34:28;95439.91;;;-1.40;100.00
27429;BME280;14881;48.092;11.574;2023-01-27T03:36:56;95435.22;;;-1.45;100.00
27429;BME280;14881;48.092;11.574;2023-01-27T03:39:41;95434.22;;;-1.50;100.00
27429;BME280;14881;48.092;11.574;2023-01-27T03:42:26;95427.25;;;-1.51;100.00
27429;BME280;14881;48.092;11.574;2023-01-27T03:45:13;95427.47;;;-1.53;100.00
27429;BME280;14881;48.092;11.574;2023-01-27T03:48:00;95431.03;;;-1.59;100.00
27429;BME280;14881;48.092;11.574;2023-01-27T03:50:31;95430.84;;;-1.64;100.00
27429;BME280;14881;48.092;11.574;2023-01-27T03:53:04;95429.00;;;-1.63;100.00
27429;BME280;14881;48.092;11.574;2023-01-27T03:55:34;95434.75;;;-1.66;100.00
27429;BME280;14881;48.092;11.574;2023-01-27T03:58:03;95432.47;;;-1.63;100.00
27429;BME280;14881;48.092;11.574;2023-01-27T04:00:45;95433.19;;;-1.74;100.00
27429;BME280;14881;48.092;11.574;2023-01-27T04:03:13;95432.94;;;-1.72;100.00
27429;BME280;14881;48.092;11.574;2023-01-27T04:06:01;95433.75;;;-1.72;100.00
27429;BME280;14881;48.092;11.574;2023-01-27T04:08:47;95435.38;;;-1.71;100.00
27429;BME280;14881;48.092;11.574;2023-01-27T04:11:15;95434.38;;;-1.70;100.00
27429;BME280;14881;48.092;11.574;2023-01-27T04:14:01;95442.13;;;-1.68;100.00
27429;BME280;14881;48.092;11.574;2023-01-27T04:16:31;95431.28;;;-1.67;100.00
27429;BME280;14881;48.092;11.574;2023-01-27T04:18:59;95431.34;;;-1.73;100.00
27429;BME280;14881;48.092;11.574;2023-01-27T04:21:31;95426.81;;;-1.73;100.00
27429;BME280;14881;48.092;11.574;2023-01-27T04:23:59;95427.19;;;-1.69;100.00
27429;BME280;14881;48.092;11.574;2023-01-27T04:26:27;95436.22;;;-1.70;100.00
27429;BME280;14881;48.092;11.574;2023-01-27T04:28:59;95434.16;;;-1.68;100.00
27429;BME280;14881;48.092;11.574;2023-01-27T04:31:28;95439.47;;;-1.68;100.00
27429;BME280;14881;48.092;11.574;2023-01-27T04:33:59;95439.47;;;-1.68;100.00
27429;BME280;14881;48.092;11.574;2023-01-27T04:36:27;95437.84;;;-1.69;100.00
27429;BME280;14881;48.092;11.574;2023-01-27T04:38:54;95442.13;;;-1.68;100.00
27429;BME280;14881;48.092;11.574;2023-01-27T04:41:22;95443.59;;;-1.72;100.00
27429;BME280;14881;48.092;11.574;2023-01-27T04:43:50;95439.47;;;-1.68;100.00
27429;BME280;14881;48.092;11.574;2023-01-27T04:46:18;95434.97;;;-1.68;100.00
27429;BME280;14881;48.092;11.574;2023-01-27T04:48:45;95444.41;;;-1.72;100.00
27429;BME280;14881;48.092;11.574;2023-01-27T04:51:14;95436.00;;;-1.69;100.00
27429;BME280;14881;48.092;11.574;2023-01-27T04:53:42;95444.81;;;-1.68;100.00
27429;BME280;14881;48.092;11.574;2023-01-27T04:56:20;95445.44;;;-1.73;100.00
27429;BME280;14881;48.092;11.574;2023-01-27T04:58:51;95447.88;;;-1.71;100.00
27429;BME280;14881;48.092;11.574;2023-01-27T05:01:21;95442.13;;;-1.68;100.00
27429;BME280;14881;48.092;11.574;2023-01-27T05:03:49;95450.94;;;-1.68;100.00
27429;BME280;14881;48.092;11.574;2023-01-27T05:06:18;95450.50;;;-1.65;100.00
27429;BME280;14881;48.092;11.574;2023-01-27T05:08:48;95444.38;;;-1.65;100.00
27429;BME280;14881;48.092;11.574;2023-01-27T05:11:16;95445.59;;;-1.61;100.00
27429;BME280;14881;48.092;11.574;2023-01-27T05:13:44;95446.00;;;-1.64;100.00
27429;BME280;14881;48.092;11.574;2023-01-27T05:16:14;95445.69;;;-1.74;100.00
27429;BME280;14881;48.092;11.574;2023-01-27T05:18:44;95446.84;;;-1.70;100.00
27429;BME280;14881;48.092;11.574;2023-01-27T05:21:13;95445.00;;;-1.70;100.00
27429;BME280;14881;48.092;11.574;2023-01-27T05:23:43;95454.63;;;-1.69;100.00
27429;BME280;14881;48.092;11.574;2023-01-27T05:26:13;95445.81;;;-1.69;100.00
27429;BME280;14881;48.092;11.574;2023-01-27T05:28:42;95450.75;;;-1.73;100.00
27429;BME280;14881;48.092;11.574;2023-01-27T05:31:16;95454.47;;;-1.74;100.00
27429;BME280;14881;48.092;11.574;2023-01-27T05:33:45;95456.69;;;-1.71;100.00
27429;BME280;14881;48.092;11.574;2023-01-27T05:36:15;95460.38;;;-1.72;100.00
27429;BME280;14881;48.092;11.574;2023-01-27T05:38:45;95460.63;;;-1.73;100.00
27429;BME280;14881;48.092;11.574;2023-01-27T05:41:14;95469.19;;;-1.71;100.00
27429;BME280;14881;48.092;11.574;2023-01-27T05:43:43;95465.13;;;-1.74;100.00
27429;BME280;14881;48.092;11.574;2023-01-27T05:46:13;95471.47;;;-1.75;100.00
27429;BME280;14881;48.092;11.574;2023-01-27T05:48:43;95468.59;;;-1.73;100.00
27429;BME280;14881;48.092;11.574;2023-01-27T05:51:12;95477.63;;;-1.74;100.00
27429;BME280;14881;48.092;11.574;2023-01-27T05:53:41;95474.09;;;-1.68;100.00
27429;BME280;14881;48.092;11.574;2023-01-27T05:56:12;95483.09;;;-1.69;100.00
27429;BME280;14881;48.092;11.574;2023-01-27T05:58:40;95483.53;;;-1.72;100.00
27429;BME280;14881;48.092;11.574;2023-01-27T06:01:10;95483.31;;;-1.71;100.00
27429;BME280;14881;48.092;11.574;2023-01-27T06:03:38;95481.84;;;-1.60;100.00
27429;BME280;14881;48.092;11.574;2023-01-27T06:06:10;95485.34;;;-1.66;100.00
27429;BME280;14881;48.092;11.574;2023-01-27T06:08:38;95502.31;;;-1.61;100.00
27429;BME280;14881;48.092;11.574;2023-01-27T06:11:07;95497.97;;;-1.55;100.00
27429;BME280;14881;48.092;11.574;2023-01-27T06:13:39;95501.69;;;-1.56;100.00
27429;BME280;14881;48.092;11.574;2023-01-27T06:16:08;95501.22;;;-1.53;100.00
27429;BME280;14881;48.092;11.574;2023-01-27T06:18:37;95497.16;;;-1.56;100.00
27429;BME280;14881;48.092;11.574;2023-01-27T06:21:06;95495.09;;;-1.54;100.00
27429;BME280;14881;48.092;11.574;2023-01-27T06:23:35;95499.38;;;-1.53;100.00
27429;BME280;14881;48.092;11.574;2023-01-27T06:26:05;95501.63;;;-1.50;100.00
27429;BME280;14881;48.092;11.574;2023-01-27T06:28:34;95499.44;;;-1.59;100.00
27429;BME280;14881;48.092;11.574;2023-01-27T06:31:09;95505.38;;;-1.57;100.00
27429;BME280;14881;48.092;11.574;2023-01-27T06:33:38;95502.31;;;-1.61;100.00
27429;BME280;14881;48.092;11.574;2023-01-27T06:36:08;95502.53;;;-1.62;100.00
27429;BME280;14881;48.092;11.574;2023-01-27T06:38:37;95509.50;;;-1.61;100.00
27429;BME280;14881;48.092;11.574;2023-01-27T06:41:05;95516.66;;;-1.62;100.00
27429;BME280;14881;48.092;11.574;2023-01-27T06:43:33;95515.22;;;-1.58;100.00
27429;BME280;14881;48.092;11.574;2023-01-27T06:46:00;95511.53;;;-1.57;100.00
27429;BME280;14881;48.092;11.574;2023-01-27T06:48:32;95527.06;;;-1.54;100.00
27429;BME280;14881;48.092;11.574;2023-01-27T06:51:00;95530.53;;;-1.53;100.00
27429;BME280;14881;48.092;11.574;2023-01-27T06:53:28;95540.13;;;-1.46;100.00
27429;BME280;14881;48.092;11.574;2023-01-27T06:55:57;95524.75;;;-1.44;100.00
27429;BME280;14881;48.092;11.574;2023-01-27T06:58:26;95533.34;;;-1.42;100.00
27429;BME280;14881;48.092;11.574;2023-01-27T07:00:55;95539.03;;;-1.38;100.00
27429;BME280;14881;48.092;11.574;2023-01-27T07:03:23;95533.28;;;-1.35;100.00
27429;BME280;14881;48.092;11.574;2023-01-27T07:05:54;95529.22;;;-1.37;100.00
27429;BME280;14881;48.092;11.574;2023-01-27T07:08:22;95526.13;;;-1.34;100.00
27429;BME280;14881;48.092;11.574;2023-01-27T07:10:49;95536.13;;;-1.30;100.00
27429;BME280;14881;48.092;11.574;2023-01-27T07:13:17;95532.06;;;-1.32;100.00
27429;BME280;14881;48.092;11.574;2023-01-27T07:15:52;95530.63;;;-1.35;100.00
27429;BME280;14881;48.092;11.574;2023-01-27T07:18:20;95535.34;;;-1.37;100.00
27429;BME280;14881;48.092;11.574;2023-01-27T07:20:48;95541.50;;;-1.36;100.00
27429;BME280;14881;48.092;11.574;2023-01-27T07:23:17;95526.13;;;-1.34;100.00
27429;BME280;14881;48.092;11.574;2023-01-27T07:25:45;95524.28;;;-1.34;100.00
27429;BME280;14881;48.092;11.574;2023-01-27T07:28:13;95528.53;;;-1.26;100.00
27429;BME280;14881;48.092;11.574;2023-01-27T07:30:41;95517.28;;;-1.28;100.00
27429;BME280;14881;48.092;11.574;2023-01-27T07:33:11;95524.41;;;-1.22;100.00
27429;BME280;14881;48.092;11.574;2023-01-27T07:35:39;95524.84;;;-1.25;100.00
27429;BME280;14881;48.092;11.574;2023-01-27T07:38:08;95523.59;;;-1.23;100.00
27429;BME280;14881;48.092;11.574;2023-01-27T07:40:37;95526.06;;;-1.21;100.00
27429;BME280;14881;48.092;11.574;2023-01-27T07:43:05;95519.91;;;-1.22;100.00
27429;BME280;14881;48.092;11.574;2023-01-27T07:45:32;95529.06;;;-1.18;100.00
27429;BME280;14881;48.092;11.574;2023-01-27T07:48:01;95527.41;;;-1.12;100.00
27429;BME280;14881;48.092;11.574;2023-01-27T07:50:29;95534.19;;;-1.16;100.00
27429;BME280;14881;48.092;11.574;2023-01-27T07:52:58;95531.75;;;-1.18;100.00
27429;BME280;14881;48.092;11.574;2023-01-27T07:55:26;95528.44;;;-1.13;100.00
27429;BME280;14881;48.092;11.574;2023-01-27T07:57:59;95526.16;;;-1.10;100.00
27429;BME280;14881;48.092;11.574;2023-01-27T08:00:27;95527.19;;;-1.11;100.00
27429;BME280;14881;48.092;11.574;2023-01-27T08:02:56;95523.72;;;-1.11;100.00
27429;BME280;14881;48.092;11.574;2023-01-27T08:05:25;95522.69;;;-1.10;100.00
27429;BME280;14881;48.092;11.574;2023-01-27T08:07:54;95527.38;;;-1.06;100.00
27429;BME280;14881;48.092;11.574;2023-01-27T08:10:26;95521.75;;;-0.97;100.00
27429;BME280;14881;48.092;11.574;2023-01-27T08:13:01;95532.00;;;-0.94;100.00
27429;BME280;14881;48.092;11.574;2023-01-27T08:15:29;95532.16;;;-0.89;100.00
27429;BME280;14881;48.092;11.574;2023-01-27T08:17:57;95533.94;;;-0.83;100.00
27429;BME280;14881;48.092;11.574;2023-01-27T08:20:26;95528.94;;;-0.73;100.00
27429;BME280;14881;48.092;11.574;2023-01-27T08:22:54;95532.34;;;-0.66;100.00
27429;BME280;14881;48.092;11.574;2023-01-27T08:25:23;95539.50;;;-0.60;100.00
27429;BME280;14881;48.092;11.574;2023-01-27T08:27:52;95534.75;;;-0.58;100.00
27429;BME280;14881;48.092;11.574;2023-01-27T08:30:22;95530.84;;;-0.55;100.00
27429;BME280;14881;48.092;11.574;2023-01-27T08:32:51;95538.03;;;-0.56;100.00
27429;BME280;14881;48.092;11.574;2023-01-27T08:35:19;95531.50;;;-0.60;100.00
27429;BME280;14881;48.092;11.574;2023-01-27T08:37:47;95531.72;;;-0.61;100.00
27429;BME280;14881;48.092;11.574;2023-01-27T08:40:15;95531.53;;;-0.66;100.00
27429;BME280;14881;48.092;11.574;2023-01-27T08:42:43;95541.03;;;-0.71;100.00
27429;BME280;14881;48.092;11.574;2023-01-27T08:45:11;95536.88;;;-0.66;100.00
27429;BME280;14881;48.092;11.574;2023-01-27T08:47:42;95554.81;;;-0.74;100.00
27429;BME280;14881;48.092;11.574;2023-01-27T08:50:10;95561.91;;;-0.67;100.00
27429;BME280;14881;48.092;11.574;2023-01-27T08:52:40;95557.84;;;-0.70;100.00
27429;BME280;14881;48.092;11.574;2023-01-27T08:55:08;95558.00;;;-0.65;100.00
27429;BME280;14881;48.092;11.574;2023-01-27T08:57:36;95565.09;;;-0.52;100.00
27429;BME280;14881;48.092;11.574;2023-01-27T09:00:09;95564.53;;;-0.36;100.00
27429;BME280;14881;48.092;11.574;2023-01-27T09:02:40;95561.34;;;-0.26;100.00
27429;BME280;14881;48.092;11.574;2023-01-27T09:05:12;95562.09;;;-0.19;100.00
27429;BME280;14881;48.092;11.574;2023-01-27T09:07:40;95556.88;;;-0.14;100.00
27429;BME280;14881;48.092;11.574;2023-01-27T09:10:09;95559.56;;;-0.14;100.00
27429;BME280;14881;48.092;11.574;2023-01-27T09:12:41;95557.72;;;-0.14;100.00
27429;BME280;14881;48.092;11.574;2023-01-27T09:15:10;95549.84;;;-0.09;100.00
27429;BME280;14881;48.092;11.574;2023-01-27T09:17:38;95561.63;;;0.02;100.00
27429;BME280;14881;48.092;11.574;2023-01-27T09:20:09;95560.25;;;-0.01;100.00
27429;BME280;14881;48.092;11.574;2023-01-27T09:22:38;95556.69;;;0.06;100.00
27429;BME280;14881;48.092;11.574;2023-01-27T09:25:07;95564.84;;;0.11;100.00
27429;BME280;14881;48.092;11.574;2023-01-27T09:27:35;95557.66;;;0.11;100.00
27429;BME280;14881;48.092;11.574;2023-01-27T09:30:07;95559.88;;;0.14;100.00
27429;BME280;14881;48.092;11.574;2023-01-27T09:32:35;95558.69;;;0.10;100.00
27429;BME280;14881;48.092;11.574;2023-01-27T09:35:03;95563.81;;;0.12;100.00
27429;BME280;14881;48.092;11.574;2023-01-27T09:37:35;95575.38;;;0.06;100.00
27429;BME280;14881;48.092;11.574;2023-01-27T09:40:13;95570.47;;;0.03;100.00
27429;BME280;14881;48.092;11.574;2023-01-27T09:43:02;95566.31;;;0.07;100.00
27429;BME280;14881;48.092;11.574;2023-01-27T09:45:48;95568.25;;;0.18;100.00
27429;BME280;14881;48.092;11.574;2023-01-27T09:48:35;95571.59;;;0.31;100.00
27429;BME280;14881;48.092;11.574;2023-01-27T09:51:12;95570.56;;;0.32;100.00
27429;BME280;14881;48.092;11.574;2023-01-27T09:53:55;95573.53;;;0.24;100.00
27429;BME280;14881;48.092;11.574;2023-01-27T09:56:38;95568.63;;;0.21;100.00
27429;BME280;14881;48.092;11.574;2023-01-27T09:59:19;95562.38;;;0.27;100.00
27429;BME280;14881;48.092;11.574;2023-01-27T10:01:55;95550.22;;;0.31;100.00
27429;BME280;14881;48.092;11.574;2023-01-27T10:04:45;95567.72;;;0.27;100.00
27429;BME280;14881;48.092;11.574;2023-01-27T10:07:43;95567.50;;;0.29;100.00
27429;BME280;14881;48.092;11.574;2023-01-27T10:10:28;95572.19;;;0.33;100.00
27429;BME280;14881;48.092;11.574;2023-01-27T10:13:12;95560.97;;;0.43;100.00
27429;BME280;14881;48.092;11.574;2023-01-27T10:15:51;95562.88;;;0.54;100.00
27429;BME280;14881;48.092;11.574;2023-01-27T10:18:38;95564.78;;;0.65;100.00
27429;BME280;14881;48.092;11.574;2023-01-27T10:21:15;95571.00;;;0.78;100.00
27429;BME280;14881;48.092;11.574;2023-01-27T10:23:55;95562.81;;;0.73;100.00
27429;BME280;14881;48.092;11.574;2023-01-27T10:26:30;95569.56;;;0.75;100.00
27429;BME280;14881;48.092;11.574;2023-01-27T10:29:05;95561.16;;;0.60;100.00
27429;BME280;14881;48.092;11.574;2023-01-27T10:31:36;95562.88;;;0.54;100.00
27429;BME280;14881;48.092;11.574;2023-01-27T10:34:17;95568.16;;;0.43;100.00
27429;BME280;14881;48.092;11.574;2023-01-27T10:36:58;95574.97;;;0.39;100.00
27429;BME280;14881;48.092;11.574;2023-01-27T10:51:09;95576.56;;;0.28;100.00
27429;BME280;14881;48.092;11.574;2023-01-27T10:53:48;95580.34;;;0.20;100.00
27429;BME280;14881;48.092;11.574;2023-01-27T10:56:28;95583.75;;;0.09;100.00
27429;BME280;14881;48.092;11.574;2023-01-27T10:59:02;95588.50;;;0.07;100.00
27429;BME280;14881;48.092;11.574;2023-01-27T11:01:35;95582.72;;;0.10;100.00
27429;BME280;14881;48.092;11.574;2023-01-27T11:04:10;95581.31;;;0.08;100.00
27429;BME280;14881;48.092;11.574;2023-01-27T11:06:42;95583.16;;;0.07;100.00
27429;BME280;14881;48.092;11.574;2023-01-27T11:09:21;95588.56;;;0.00;100.00
27429;BME280;14881;48.092;11.574;2023-01-27T11:11:51;95586.50;;;0.03;100.00
27429;BME280;14881;48.092;11.574;2023-01-27T11:14:28;95587.69;;;0.07;100.00
27429;BME280;14881;48.092;11.574;2023-01-27T11:17:00;95588.66;;;-0.06;100.00
27429;BME280;14881;48.092;11.574;2023-01-27T11:19:37;95580.84;;;-0.08;100.00
27429;BME280;14881;48.092;11.574;2023-01-27T11:22:17;95574.88;;;-0.03;100.00
27429;BME280;14881;48.092;11.574;2023-01-27T11:24:51;95569.81;;;-0.11;100.00
27429;BME280;14881;48.092;11.574;2023-01-27T11:27:26;95580.41;;;-0.05;100.00
27429;BME280;14881;48.092;11.574;2023-01-27T11:29:59;95575.75;;;-0.09;100.00
27429;BME280;14881;48.092;11.574;2023-01-27T11:32:43;95567.94;;;-0.11;100.00
27429;BME280;14881;48.092;11.574;2023-01-27T11:35:15;95565.59;;;-0.19;100.00
27429;BME280;14881;48.092;11.574;2023-01-27T11:37:46;95569.06;;;-0.18;100.00
27429;BME280;14881;48.092;11.574;2023-01-27T11:40:17;95568.00;;;-0.17;100.00
27429;BME280;14881;48.092;11.574;2023-01-27T11:42:45;95558.84;;;-0.21;100.00
27429;BME280;14881;48.092;11.574;2023-01-27T11:45:19;95568.97;;;-0.12;100.00
27429;BME280;14881;48.092;11.574;2023-01-27T11:47:50;95562.44;;;-0.16;100.00
27429;BME280;14881;48.092;11.574;2023-01-27T11:50:21;95560.81;;;-0.17;100.00
27429;BME280;14881;48.092;11.574;2023-01-27T11:52:55;95564.75;;;-0.19;100.00
27429;BME280;14881;48.092;11.574;2023-01-27T11:55:28;95572.69;;;-0.13;100.00
27429;BME280;14881;48.092;11.574;2023-01-27T11:58:09;95569.88;;;-0.18;100.00
27429;BME280;14881;48.092;11.574;2023-01-27T12:00:41;95566.16;;;-0.17;100.00
27429;BME280;14881;48.092;11.574;2023-01-27T12:03:15;95564.53;;;-0.18;100.00
27429;BME280;14881;48.092;11.574;2023-01-27T12:05:48;95570.53;;;-0.22;100.00
27429;BME280;14881;48.092;11.574;2023-01-27T12:08:40;95558.66;;;-0.26;100.00
27429;BME280;14881;48.092;11.574;2023-01-27T12:11:19;95559.44;;;-0.19;100.00
27429;BME280;14881;48.092;11.574;2023-01-27T12:13:49;95564.09;;;0.04;100.00
27429;BME280;14881;48.092;11.574;2023-01-27T12:16:23;95560.91;;;0.13;100.00
27429;BME280;14881;48.092;11.574;2023-01-27T12:18:54;95556.06;;;0.22;100.00
27429;BME280;14881;48.092;11.574;2023-01-27T12:21:34;95549.03;;;0.27;100.00
27429;BME280;14881;48.092;11.574;2023-01-27T12:24:21;95543.63;;;0.34;100.00
27429;BME280;14881;48.092;11.574;2023-01-27T12:26:52;95538.00;;;0.54;100.00
27429;BME280;14881;48.092;11.574;2023-01-27T12:29:28;95543.19;;;0.67;100.00
27429;BME280;14881;48.092;11.574;2023-01-27T12:32:01;95538.53;;;0.74;100.00
27429;BME280;14881;48.092;11.574;2023-01-27T12:34:32;95536.47;;;0.76;100.00
27429;BME280;14881;48.092;11.574;2023-01-27T12:37:05;95537.78;;;0.85;100.00
27429;BME280;14881;48.092;11.574;2023-01-27T12:39:44;95543.06;;;0.74;100.00
27429;BME280;14881;48.092;11.574;2023-01-27T12:42:35;95537.13;;;0.72;100.00
27429;BME280;14881;48.092;11.574;2023-01-27T12:45:22;95536.53;;;0.69;100.00
27429;BME280;14881;48.092;11.574;2023-01-27T12:47:59;95542.81;;;0.63;100.00
27429;BME280;14881;48.092;11.574;2023-01-27T12:50:29;95539.84;;;0.53;100.00
27429;BME280;14881;48.092;11.574;2023-01-27T12:53:03;95533.41;;;0.43;100.00
27429;BME280;14881;48.092;11.574;2023-01-27T12:55:37;95537.13;;;0.42;100.00
27429;BME280;14881;48.092;11.574;2023-01-27T12:58:28;95537.69;;;0.32;100.00
27429;BME280;14881;48.092;11.574;2023-01-27T13:00:57;95540.50;;;0.19;100.00
27429;BME280;14881;48.092;11.574;2023-01-27T13:03:27;95540.44;;;0.25;100.00
27429;BME280;14881;48.092;11.574;2023-01-27T13:05:57;95532.13;;;0.33;100.00
27429;BME280;14881;48.092;11.574;2023-01-27T13:08:27;95531.41;;;0.38;100.00
27429;BME280;14881;48.092;11.574;2023-01-27T13:11:01;95535.06;;;0.44;100.00
27429;BME280;14881;48.092;11.574;2023-01-27T13:13:30;95540.53;;;0.49;100.00
27429;BME280;14881;48.092;11.574;2023-01-27T13:16:04;95532.31;;;0.50;100.00
27429;BME280;14881;48.092;11.574;2023-01-27T13:18:35;95533.56;;;0.48;100.00